Jeju International Airport
RKPC : now visible

Airfield :











YOU CAN JOIN US ON...

 
LOGIN :

Register | Disclaimer

   EN    FR    IT 

 









Legend :    VFR   Marginal VFR   IFR   Intensive IFR   Very Intensive IFR
Visi :
Ceiling :
>= 8 km
>= 3000ft
5 to 8 km
1000 to 3000 ft
1500m to 5 km
500 to 1000 ft
800 to 1500m
200 to 500 ft
< 800m
< 200 ft
Symbols :   Thunderstorms  Fog  Heavy snow  Heavy precipitations  Wind > 20 kt






- Airport Elevation : 118 ft
- IATA code : CJU


RKPC - Jeju International

CURRENT METAR :
  • 220000Z 08013KT 6000 -DZ BKN006 BKN025 16/15 Q1012 NOSIG

EXPIRED METARs :
  • 212313Z 07013KT 4000 -DZ BR BKN006 BKN025 16/15 Q1011 NOSIG
  • 212300Z 07011KT 6000 BKN006 BKN025 16/15 Q1011 NOSIG
  • 212232Z 08010KT 5000 -DZ BR BKN005 BKN020 16/15 Q1011 NOSIG
  • 212200Z 08010KT 3000 -DZ BR BKN005 BKN020 16/15 Q1011 NOSIG
  • 212100Z 06004KT 360V060 1800 -RA BR BKN003 BKN020 15/15 Q1011 NOSIG
  • 212028Z 04002KT 2800 -RA BR BKN005 BKN020 15/14 Q1011 NOSIG
  • 212006Z 08003KT 2800 -DZ BR SCT008 BKN020 15/14 Q1011 NOSIG
  • 212000Z 09003KT 3500 -DZ BR SCT010 BKN020 15/14 Q1011 NOSIG
  • 211900Z 09005KT 9999 SCT010 BKN020 15/14 Q1010 NOSIG

TAF TAF RKPC
Valid from the 22 at 00:00 until the 23 at 06:00 UTC


212300Z 2200/2306 08015G25KT 6000 FEW010 BKN025 TX18/2205Z TN14/2220Z TX17/2305Z
TEMPO 2200/2202 -DZ BKN007 BKN025
TEMPO 2304/2306 -RA FEW010 BKN040 OVC080
RKRR FIR / Asia



MET'MAP, your aeronautical weather chart ! - Copyright ORBIFLY December 2007 - Disclaimer

ORBIFLY MET'MAP TEAM :

Programming & Development : Alexandra Zaïnal
Original concept : Baudouin d'Aumeries
Technical & hardware support : Manuel Goepfert
Assistance : Marc-Olivier Méhu




SOURCES & CREDITS :

   NOAA       Earth
Advisory